Hikone, Japan

9:14 AM JST on April 01, 2015 (GMT +0900)
Nagoya / Chubu | | Change Station
CLOSE
Current Station
Airport
Location: Nagoya / Chubu,
Elevation: 16 ft
Nearby Weather Stations

Elev 16 ft 34.86 °N, 136.81 °E | Updated 14 minutes ago

Light Rain Showers
Light Showers Rain Mist
55 °F
Feels Like 55 °F
N
6
Wind Variable Wind from North

Today
High -- | Low -- °F
--% Chance of Precip.
Yesterday
High -- | Low -- °F
Precip. -- in
5:42 AM 6:15 PM
Waxing Gibbous, 89% visible
Pressure 29.92 in
Visibility 0.7 miles
Clouds Few 200 ft
Scattered Clouds 300 ft
Mostly Cloudy 500 ft
Dew Point 54 °F
Humidity 94%
Rainfall 0.00 in
Snow Depth Not available.
UV 0 out of 12
Pollen Not available.
Air Quality Not available.
Flu Activity Not available.
METAR RJGG 010000Z 35005KT 1200 R36/P1800N -SHRA BR FEW002 SCT003 BKN005 13/12 Q1013 NOSIG

More Conditions Fewer Conditions

Pressure 29.92 in
Visibility 0.7 miles
Clouds Few 200 ft
Scattered Clouds 300 ft
Mostly Cloudy 500 ft
Dew Point 54 °F
Humidity 94%
Rainfall 0.00 in
Snow Depth Not available.
UV 0 out of 12
Pollen Not available.
Air Quality Not available.
Flu Activity Not available.
METAR RJGG 010000Z 35005KT 1200 R36/P1800N -SHRA BR FEW002 SCT003 BKN005 13/12 Q1013 NOSIG

More Conditions Fewer Conditions

10-Day Weather Forecast

Almanac

Astronomy

Apr. 01, 2015 Rise Set
Actual Time
Civil Twilight
Nautical Twilight
Astronomical Twilight
Moon
Length of Visible Light
Length of Day
Tomorrow will be .
, % of the Moon is Illuminated

Today's Extremes

Country Highs Country Lows

Community

WunderPhotos

Upload Photos

1,809,883 photos uploaded!

WunderBlogs® & News

Nearby

Air Quality

  Air Quality AQ Index Pollutant
Not available.

Snow Depth

Station Depth Elevation

Earthquake Activity

City Distance Mag. Time & Date
Minimum magnitude displayed is 2.5.

Coastal Water Temperatures

Place Temperature

Stations

Nearby Weather Stations

Station Location Temp. Windchill Dew Point Humidity Wind Precip. Elev Updated Type